sensor_id;sensor_type;location;lat;lon;timestamp;P1;durP1;ratioP1;P2;durP2;ratioP2
30010;SDS011;16851;53.564;8.112;2023-04-07T00:02:53;20.07;;;13.80;;
30010;SDS011;16851;53.564;8.112;2023-04-07T00:07:59;19.47;;;12.93;;
30010;SDS011;16851;53.564;8.112;2023-04-07T00:13:04;21.73;;;14.43;;
30010;SDS011;16851;53.564;8.112;2023-04-07T00:18:06;17.90;;;13.33;;
30010;SDS011;16851;53.564;8.112;2023-04-07T00:23:15;19.90;;;14.60;;
30010;SDS011;16851;53.564;8.112;2023-04-07T00:28:19;20.87;;;14.70;;
30010;SDS011;16851;53.564;8.112;2023-04-07T00:33:25;21.57;;;16.50;;
30010;SDS011;16851;53.564;8.112;2023-04-07T00:38:31;23.10;;;14.60;;
30010;SDS011;16851;53.564;8.112;2023-04-07T00:43:33;20.00;;;13.90;;
30010;SDS011;16851;53.564;8.112;2023-04-07T00:48:37;19.57;;;14.23;;
30010;SDS011;16851;53.564;8.112;2023-04-07T00:53:41;19.77;;;15.57;;
30010;SDS011;16851;53.564;8.112;2023-04-07T00:58:46;18.60;;;14.30;;
30010;SDS011;16851;53.564;8.112;2023-04-07T01:08:54;18.53;;;12.83;;
30010;SDS011;16851;53.564;8.112;2023-04-07T01:14:33;17.67;;;13.43;;
30010;SDS011;16851;53.564;8.112;2023-04-07T01:20:01;20.83;;;13.17;;
30010;SDS011;16851;53.564;8.112;2023-04-07T01:30:17;19.67;;;13.50;;
30010;SDS011;16851;53.564;8.112;2023-04-07T01:35:19;18.30;;;12.83;;
30010;SDS011;16851;53.564;8.112;2023-04-07T01:40:25;17.63;;;13.20;;
30010;SDS011;16851;53.564;8.112;2023-04-07T01:45:30;17.43;;;12.30;;
30010;SDS011;16851;53.564;8.112;2023-04-07T01:50:32;18.43;;;12.73;;
30010;SDS011;16851;53.564;8.112;2023-04-07T01:55:36;18.23;;;12.70;;
30010;SDS011;16851;53.564;8.112;2023-04-07T02:00:42;20.23;;;13.37;;
30010;SDS011;16851;53.564;8.112;2023-04-07T02:05:49;17.83;;;12.93;;
30010;SDS011;16851;53.564;8.112;2023-04-07T02:10:56;19.27;;;13.07;;
30010;SDS011;16851;53.564;8.112;2023-04-07T02:16:05;18.70;;;12.97;;
30010;SDS011;16851;53.564;8.112;2023-04-07T02:21:14;20.97;;;12.20;;
30010;SDS011;16851;53.564;8.112;2023-04-07T02:26:21;19.60;;;13.10;;
30010;SDS011;16851;53.564;8.112;2023-04-07T02:31:25;17.77;;;14.00;;
30010;SDS011;16851;53.564;8.112;2023-04-07T02:36:29;18.27;;;13.00;;
30010;SDS011;16851;53.564;8.112;2023-04-07T02:41:32;18.13;;;12.73;;
30010;SDS011;16851;53.564;8.112;2023-04-07T02:46:41;24.20;;;13.20;;
30010;SDS011;16851;53.564;8.112;2023-04-07T02:51:47;19.30;;;12.97;;
30010;SDS011;16851;53.564;8.112;2023-04-07T02:56:49;18.73;;;12.63;;
30010;SDS011;16851;53.564;8.112;2023-04-07T03:01:59;22.67;;;12.67;;
30010;SDS011;16851;53.564;8.112;2023-04-07T03:07:02;17.40;;;12.60;;
30010;SDS011;16851;53.564;8.112;2023-04-07T03:12:07;22.27;;;13.83;;
30010;SDS011;16851;53.564;8.112;2023-04-07T03:17:10;20.10;;;13.43;;
30010;SDS011;16851;53.564;8.112;2023-04-07T03:22:15;20.13;;;13.30;;
30010;SDS011;16851;53.564;8.112;2023-04-07T03:27:22;18.47;;;13.20;;
30010;SDS011;16851;53.564;8.112;2023-04-07T03:32:24;16.23;;;13.10;;
30010;SDS011;16851;53.564;8.112;2023-04-07T03:37:26;21.47;;;13.33;;
30010;SDS011;16851;53.564;8.112;2023-04-07T03:42:35;20.00;;;13.37;;
30010;SDS011;16851;53.564;8.112;2023-04-07T03:47:40;20.13;;;13.20;;
30010;SDS011;16851;53.564;8.112;2023-04-07T03:52:43;21.03;;;14.37;;
30010;SDS011;16851;53.564;8.112;2023-04-07T03:57:56;18.07;;;13.57;;
30010;SDS011;16851;53.564;8.112;2023-04-07T04:03:04;17.13;;;13.33;;
30010;SDS011;16851;53.564;8.112;2023-04-07T04:08:13;18.90;;;12.70;;
30010;SDS011;16851;53.564;8.112;2023-04-07T04:13:17;17.17;;;12.60;;
30010;SDS011;16851;53.564;8.112;2023-04-07T04:18:22;16.40;;;12.90;;
30010;SDS011;16851;53.564;8.112;2023-04-07T04:23:27;16.80;;;12.53;;
30010;SDS011;16851;53.564;8.112;2023-04-07T04:28:32;18.03;;;13.53;;
30010;SDS011;16851;53.564;8.112;2023-04-07T04:33:40;18.70;;;13.93;;
30010;SDS011;16851;53.564;8.112;2023-04-07T04:38:44;17.93;;;13.33;;
30010;SDS011;16851;53.564;8.112;2023-04-07T04:43:52;20.47;;;12.97;;
30010;SDS011;16851;53.564;8.112;2023-04-07T04:48:59;19.37;;;13.00;;
30010;SDS011;16851;53.564;8.112;2023-04-07T04:54:02;17.67;;;14.43;;
30010;SDS011;16851;53.564;8.112;2023-04-07T04:59:05;15.98;;;13.80;;
30010;SDS011;16851;53.564;8.112;2023-04-07T05:04:17;15.73;;;13.87;;
30010;SDS011;16851;53.564;8.112;2023-04-07T05:09:30;19.27;;;14.03;;
30010;SDS011;16851;53.564;8.112;2023-04-07T05:14:35;19.63;;;13.63;;
30010;SDS011;16851;53.564;8.112;2023-04-07T05:19:40;20.60;;;13.30;;
30010;SDS011;16851;53.564;8.112;2023-04-07T05:24:51;18.87;;;13.30;;
30010;SDS011;16851;53.564;8.112;2023-04-07T05:29:53;18.83;;;13.70;;
30010;SDS011;16851;53.564;8.112;2023-04-07T05:35:05;18.53;;;13.53;;
30010;SDS011;16851;53.564;8.112;2023-04-07T05:40:14;21.20;;;14.03;;
30010;SDS011;16851;53.564;8.112;2023-04-07T05:45:17;18.13;;;13.80;;
30010;SDS011;16851;53.564;8.112;2023-04-07T05:50:23;16.93;;;13.40;;
30010;SDS011;16851;53.564;8.112;2023-04-07T05:55:25;20.57;;;14.23;;
30010;SDS011;16851;53.564;8.112;2023-04-07T06:00:29;20.27;;;14.70;;
30010;SDS011;16851;53.564;8.112;2023-04-07T06:05:40;20.73;;;13.47;;
30010;SDS011;16851;53.564;8.112;2023-04-07T06:10:45;20.33;;;14.00;;
30010;SDS011;16851;53.564;8.112;2023-04-07T06:15:49;17.30;;;13.33;;
30010;SDS011;16851;53.564;8.112;2023-04-07T06:20:51;18.97;;;13.53;;
30010;SDS011;16851;53.564;8.112;2023-04-07T06:25:56;16.37;;;12.43;;
30010;SDS011;16851;53.564;8.112;2023-04-07T06:30:57;19.50;;;12.93;;
30010;SDS011;16851;53.564;8.112;2023-04-07T06:36:02;16.40;;;12.77;;
30010;SDS011;16851;53.564;8.112;2023-04-07T06:41:03;17.77;;;12.93;;
30010;SDS011;16851;53.564;8.112;2023-04-07T06:46:06;15.67;;;12.67;;
30010;SDS011;16851;53.564;8.112;2023-04-07T06:51:11;14.90;;;11.97;;
30010;SDS011;16851;53.564;8.112;2023-04-07T06:56:17;17.27;;;12.13;;
30010;SDS011;16851;53.564;8.112;2023-04-07T07:01:19;16.43;;;11.90;;
30010;SDS011;16851;53.564;8.112;2023-04-07T07:06:24;16.40;;;11.63;;
30010;SDS011;16851;53.564;8.112;2023-04-07T07:11:28;16.03;;;11.83;;
30010;SDS011;16851;53.564;8.112;2023-04-07T07:16:32;17.73;;;11.60;;
30010;SDS011;16851;53.564;8.112;2023-04-07T07:21:36;16.67;;;12.50;;
30010;SDS011;16851;53.564;8.112;2023-04-07T07:26:38;15.10;;;11.83;;
30010;SDS011;16851;53.564;8.112;2023-04-07T07:31:44;15.30;;;11.07;;
30010;SDS011;16851;53.564;8.112;2023-04-07T07:36:50;14.73;;;10.40;;
30010;SDS011;16851;53.564;8.112;2023-04-07T07:41:52;16.97;;;11.77;;
30010;SDS011;16851;53.564;8.112;2023-04-07T07:46:56;17.07;;;11.13;;
30010;SDS011;16851;53.564;8.112;2023-04-07T07:51:58;17.13;;;11.37;;
30010;SDS011;16851;53.564;8.112;2023-04-07T07:57:02;15.90;;;11.10;;
30010;SDS011;16851;53.564;8.112;2023-04-07T08:02:07;15.63;;;11.37;;
30010;SDS011;16851;53.564;8.112;2023-04-07T08:07:11;18.50;;;11.13;;
30010;SDS011;16851;53.564;8.112;2023-04-07T08:12:16;15.00;;;10.53;;
30010;SDS011;16851;53.564;8.112;2023-04-07T08:17:20;14.30;;;10.80;;
30010;SDS011;16851;53.564;8.112;2023-04-07T08:22:24;20.17;;;11.10;;
30010;SDS011;16851;53.564;8.112;2023-04-07T08:27:28;14.93;;;10.73;;
30010;SDS011;16851;53.564;8.112;2023-04-07T08:32:37;15.37;;;10.93;;
30010;SDS011;16851;53.564;8.112;2023-04-07T08:37:42;14.23;;;10.30;;
30010;SDS011;16851;53.564;8.112;2023-04-07T08:42:47;15.57;;;11.13;;
30010;SDS011;16851;53.564;8.112;2023-04-07T08:47:49;16.93;;;10.43;;
30010;SDS011;16851;53.564;8.112;2023-04-07T08:52:59;14.50;;;10.30;;
30010;SDS011;16851;53.564;8.112;2023-04-07T08:58:08;17.63;;;10.60;;
30010;SDS011;16851;53.564;8.112;2023-04-07T09:03:15;17.17;;;9.93;;
30010;SDS011;16851;53.564;8.112;2023-04-07T09:08:17;14.50;;;9.60;;
30010;SDS011;16851;53.564;8.112;2023-04-07T09:13:23;12.30;;;9.10;;
30010;SDS011;16851;53.564;8.112;2023-04-07T09:18:29;12.30;;;9.40;;
30010;SDS011;16851;53.564;8.112;2023-04-07T09:23:32;15.47;;;9.07;;
30010;SDS011;16851;53.564;8.112;2023-04-07T09:28:41;13.17;;;9.20;;
30010;SDS011;16851;53.564;8.112;2023-04-07T09:33:43;13.60;;;8.77;;
30010;SDS011;16851;53.564;8.112;2023-04-07T09:38:47;10.90;;;8.67;;
30010;SDS011;16851;53.564;8.112;2023-04-07T09:43:55;11.53;;;7.70;;
30010;SDS011;16851;53.564;8.112;2023-04-07T09:49:00;11.43;;;8.43;;
30010;SDS011;16851;53.564;8.112;2023-04-07T09:54:05;11.27;;;8.10;;
30010;SDS011;16851;53.564;8.112;2023-04-07T09:59:09;11.00;;;7.63;;
30010;SDS011;16851;53.564;8.112;2023-04-07T10:04:11;12.43;;;7.55;;
30010;SDS011;16851;53.564;8.112;2023-04-07T10:09:15;11.23;;;8.18;;
30010;SDS011;16851;53.564;8.112;2023-04-07T10:14:18;12.35;;;8.13;;
30010;SDS011;16851;53.564;8.112;2023-04-07T10:19:21;10.35;;;7.32;;
30010;SDS011;16851;53.564;8.112;2023-04-07T10:29:52;14.40;;;7.03;;
30010;SDS011;16851;53.564;8.112;2023-04-07T10:34:55;10.35;;;6.68;;
30010;SDS011;16851;53.564;8.112;2023-04-07T10:45:50;13.05;;;8.05;;
30010;SDS011;16851;53.564;8.112;2023-04-07T10:56:06;11.20;;;7.60;;
30010;SDS011;16851;53.564;8.112;2023-04-07T11:06:13;12.40;;;7.95;;
30010;SDS011;16851;53.564;8.112;2023-04-07T11:11:33;10.52;;;7.10;;
30010;SDS011;16851;53.564;8.112;2023-04-07T11:16:41;11.07;;;7.53;;
30010;SDS011;16851;53.564;8.112;2023-04-07T11:21:43;10.23;;;7.20;;
30010;SDS011;16851;53.564;8.112;2023-04-07T11:26:48;9.50;;;7.05;;
30010;SDS011;16851;53.564;8.112;2023-04-07T11:31:51;9.77;;;7.60;;
30010;SDS011;16851;53.564;8.112;2023-04-07T11:36:53;11.73;;;8.32;;
30010;SDS011;16851;53.564;8.112;2023-04-07T11:41:59;11.73;;;7.00;;
30010;SDS011;16851;53.564;8.112;2023-04-07T11:47:07;13.57;;;7.35;;
30010;SDS011;16851;53.564;8.112;2023-04-07T11:52:11;13.43;;;8.02;;
30010;SDS011;16851;53.564;8.112;2023-04-07T11:57:25;11.80;;;7.32;;
30010;SDS011;16851;53.564;8.112;2023-04-07T12:02:31;12.23;;;7.78;;
30010;SDS011;16851;53.564;8.112;2023-04-07T12:07:36;8.95;;;6.95;;
30010;SDS011;16851;53.564;8.112;2023-04-07T12:12:41;11.80;;;7.47;;
30010;SDS011;16851;53.564;8.112;2023-04-07T12:17:48;10.40;;;7.00;;
30010;SDS011;16851;53.564;8.112;2023-04-07T12:22:50;9.85;;;6.43;;
30010;SDS011;16851;53.564;8.112;2023-04-07T12:27:59;15.55;;;6.25;;
30010;SDS011;16851;53.564;8.112;2023-04-07T12:33:01;10.65;;;6.55;;
30010;SDS011;16851;53.564;8.112;2023-04-07T12:38:06;9.18;;;6.15;;
30010;SDS011;16851;53.564;8.112;2023-04-07T12:43:12;7.55;;;5.82;;
30010;SDS011;16851;53.564;8.112;2023-04-07T12:48:14;7.88;;;5.13;;
30010;SDS011;16851;53.564;8.112;2023-04-07T12:53:19;7.45;;;5.15;;
30010;SDS011;16851;53.564;8.112;2023-04-07T12:58:20;9.75;;;5.45;;
30010;SDS011;16851;53.564;8.112;2023-04-07T13:03:22;8.63;;;5.97;;
30010;SDS011;16851;53.564;8.112;2023-04-07T13:08:24;12.10;;;5.68;;
30010;SDS011;16851;53.564;8.112;2023-04-07T13:13:28;10.23;;;5.82;;
30010;SDS011;16851;53.564;8.112;2023-04-07T13:18:30;8.38;;;5.40;;
30010;SDS011;16851;53.564;8.112;2023-04-07T13:23:32;13.90;;;5.47;;
30010;SDS011;16851;53.564;8.112;2023-04-07T13:28:44;7.55;;;5.38;;
30010;SDS011;16851;53.564;8.112;2023-04-07T13:33:46;9.18;;;5.57;;
30010;SDS011;16851;53.564;8.112;2023-04-07T13:38:50;8.80;;;5.38;;
30010;SDS011;16851;53.564;8.112;2023-04-07T13:43:52;7.85;;;5.90;;
30010;SDS011;16851;53.564;8.112;2023-04-07T13:48:56;7.82;;;5.88;;
30010;SDS011;16851;53.564;8.112;2023-04-07T13:54:03;10.05;;;5.90;;
30010;SDS011;16851;53.564;8.112;2023-04-07T13:59:05;7.57;;;5.38;;
30010;SDS011;16851;53.564;8.112;2023-04-07T14:04:07;6.85;;;5.32;;
30010;SDS011;16851;53.564;8.112;2023-04-07T14:09:12;9.32;;;5.13;;
30010;SDS011;16851;53.564;8.112;2023-04-07T14:14:19;10.27;;;5.07;;
30010;SDS011;16851;53.564;8.112;2023-04-07T14:19:21;8.60;;;4.10;;
30010;SDS011;16851;53.564;8.112;2023-04-07T14:24:26;10.45;;;4.63;;
30010;SDS011;16851;53.564;8.112;2023-04-07T14:29:28;9.82;;;4.25;;
30010;SDS011;16851;53.564;8.112;2023-04-07T14:34:30;9.23;;;4.40;;
30010;SDS011;16851;53.564;8.112;2023-04-07T14:39:32;8.32;;;4.57;;
30010;SDS011;16851;53.564;8.112;2023-04-07T14:44:33;7.95;;;4.53;;
30010;SDS011;16851;53.564;8.112;2023-04-07T14:49:37;8.63;;;4.57;;
30010;SDS011;16851;53.564;8.112;2023-04-07T14:54:41;9.88;;;4.57;;
30010;SDS011;16851;53.564;8.112;2023-04-07T14:59:48;7.80;;;4.68;;
30010;SDS011;16851;53.564;8.112;2023-04-07T15:04:50;7.22;;;4.07;;
30010;SDS011;16851;53.564;8.112;2023-04-07T15:09:54;11.75;;;4.57;;
30010;SDS011;16851;53.564;8.112;2023-04-07T15:15:00;6.43;;;4.38;;
30010;SDS011;16851;53.564;8.112;2023-04-07T15:20:04;9.50;;;4.90;;
30010;SDS011;16851;53.564;8.112;2023-04-07T15:25:06;9.48;;;4.40;;
30010;SDS011;16851;53.564;8.112;2023-04-07T15:30:09;7.82;;;4.22;;
30010;SDS011;16851;53.564;8.112;2023-04-07T15:35:11;7.32;;;4.20;;
30010;SDS011;16851;53.564;8.112;2023-04-07T15:40:15;7.50;;;3.88;;
30010;SDS011;16851;53.564;8.112;2023-04-07T15:45:20;7.53;;;3.90;;
30010;SDS011;16851;53.564;8.112;2023-04-07T15:50:25;7.68;;;3.50;;
30010;SDS011;16851;53.564;8.112;2023-04-07T15:55:30;8.05;;;3.28;;
30010;SDS011;16851;53.564;8.112;2023-04-07T16:00:36;5.40;;;2.88;;
30010;SDS011;16851;53.564;8.112;2023-04-07T16:05:40;6.22;;;4.38;;
30010;SDS011;16851;53.564;8.112;2023-04-07T16:10:45;6.43;;;3.22;;
30010;SDS011;16851;53.564;8.112;2023-04-07T16:15:49;5.55;;;2.78;;
30010;SDS011;16851;53.564;8.112;2023-04-07T16:20:50;6.32;;;3.50;;
30010;SDS011;16851;53.564;8.112;2023-04-07T16:25:55;5.10;;;2.83;;
30010;SDS011;16851;53.564;8.112;2023-04-07T16:30:59;3.28;;;2.03;;
30010;SDS011;16851;53.564;8.112;2023-04-07T16:36:05;5.22;;;2.38;;
30010;SDS011;16851;53.564;8.112;2023-04-07T16:41:07;7.65;;;2.17;;
30010;SDS011;16851;53.564;8.112;2023-04-07T16:46:09;4.90;;;2.00;;
30010;SDS011;16851;53.564;8.112;2023-04-07T16:51:17;6.25;;;2.28;;
30010;SDS011;16851;53.564;8.112;2023-04-07T16:56:20;4.93;;;2.15;;
30010;SDS011;16851;53.564;8.112;2023-04-07T17:01:28;2.40;;;1.50;;
30010;SDS011;16851;53.564;8.112;2023-04-07T17:06:34;3.28;;;1.95;;
30010;SDS011;16851;53.564;8.112;2023-04-07T17:11:41;4.30;;;2.20;;
30010;SDS011;16851;53.564;8.112;2023-04-07T17:16:43;8.13;;;2.70;;
30010;SDS011;16851;53.564;8.112;2023-04-07T17:21:47;4.63;;;2.63;;
30010;SDS011;16851;53.564;8.112;2023-04-07T17:26:51;4.60;;;2.40;;
30010;SDS011;16851;53.564;8.112;2023-04-07T17:31:53;7.40;;;2.70;;
30010;SDS011;16851;53.564;8.112;2023-04-07T17:36:58;6.88;;;3.72;;
30010;SDS011;16851;53.564;8.112;2023-04-07T17:41:59;4.07;;;2.92;;
30010;SDS011;16851;53.564;8.112;2023-04-07T17:47:03;5.38;;;2.00;;
30010;SDS011;16851;53.564;8.112;2023-04-07T17:52:07;7.05;;;3.20;;
30010;SDS011;16851;53.564;8.112;2023-04-07T17:57:11;4.95;;;2.78;;
30010;SDS011;16851;53.564;8.112;2023-04-07T18:02:14;6.20;;;2.30;;
30010;SDS011;16851;53.564;8.112;2023-04-07T18:07:19;3.80;;;1.90;;
30010;SDS011;16851;53.564;8.112;2023-04-07T18:12:21;3.03;;;1.63;;
30010;SDS011;16851;53.564;8.112;2023-04-07T18:17:28;4.55;;;1.90;;
30010;SDS011;16851;53.564;8.112;2023-04-07T18:22:35;4.47;;;2.13;;
30010;SDS011;16851;53.564;8.112;2023-04-07T18:27:37;3.83;;;2.25;;
30010;SDS011;16851;53.564;8.112;2023-04-07T18:32:42;5.93;;;2.65;;
30010;SDS011;16851;53.564;8.112;2023-04-07T18:37:49;4.65;;;2.90;;
30010;SDS011;16851;53.564;8.112;2023-04-07T18:42:52;8.65;;;4.30;;
30010;SDS011;16851;53.564;8.112;2023-04-07T18:47:55;5.25;;;3.20;;
30010;SDS011;16851;53.564;8.112;2023-04-07T18:52:59;4.82;;;3.63;;
30010;SDS011;16851;53.564;8.112;2023-04-07T18:58:02;8.97;;;4.10;;
30010;SDS011;16851;53.564;8.112;2023-04-07T19:03:06;6.35;;;4.20;;
30010;SDS011;16851;53.564;8.112;2023-04-07T19:08:08;6.00;;;4.13;;
30010;SDS011;16851;53.564;8.112;2023-04-07T19:13:13;6.80;;;4.33;;
30010;SDS011;16851;53.564;8.112;2023-04-07T19:18:18;7.40;;;4.47;;
30010;SDS011;16851;53.564;8.112;2023-04-07T19:23:21;8.13;;;5.27;;
30010;SDS011;16851;53.564;8.112;2023-04-07T19:28:23;7.50;;;4.70;;
30010;SDS011;16851;53.564;8.112;2023-04-07T19:33:24;11.37;;;5.37;;
30010;SDS011;16851;53.564;8.112;2023-04-07T19:38:29;8.37;;;5.37;;
30010;SDS011;16851;53.564;8.112;2023-04-07T19:43:30;9.47;;;5.40;;
30010;SDS011;16851;53.564;8.112;2023-04-07T19:48:32;10.20;;;6.03;;
30010;SDS011;16851;53.564;8.112;2023-04-07T19:53:36;12.57;;;6.27;;
30010;SDS011;16851;53.564;8.112;2023-04-07T19:58:38;10.43;;;6.50;;
30010;SDS011;16851;53.564;8.112;2023-04-07T20:03:42;11.97;;;6.33;;
30010;SDS011;16851;53.564;8.112;2023-04-07T20:08:47;10.80;;;6.87;;
30010;SDS011;16851;53.564;8.112;2023-04-07T20:13:49;11.33;;;7.30;;
30010;SDS011;16851;53.564;8.112;2023-04-07T20:18:53;11.87;;;7.40;;
30010;SDS011;16851;53.564;8.112;2023-04-07T20:24:00;12.13;;;7.43;;
30010;SDS011;16851;53.564;8.112;2023-04-07T20:29:02;12.90;;;7.40;;
30010;SDS011;16851;53.564;8.112;2023-04-07T20:34:06;9.50;;;6.60;;
30010;SDS011;16851;53.564;8.112;2023-04-07T20:39:12;10.47;;;6.90;;
30010;SDS011;16851;53.564;8.112;2023-04-07T20:44:14;11.37;;;6.97;;
30010;SDS011;16851;53.564;8.112;2023-04-07T20:49:16;12.00;;;7.17;;
30010;SDS011;16851;53.564;8.112;2023-04-07T20:54:18;12.90;;;8.37;;
30010;SDS011;16851;53.564;8.112;2023-04-07T20:59:25;11.70;;;8.83;;
30010;SDS011;16851;53.564;8.112;2023-04-07T21:04:27;16.17;;;8.50;;
30010;SDS011;16851;53.564;8.112;2023-04-07T21:09:31;10.37;;;8.50;;
30010;SDS011;16851;53.564;8.112;2023-04-07T21:14:33;15.47;;;9.37;;
30010;SDS011;16851;53.564;8.112;2023-04-07T21:19:40;15.77;;;11.10;;
30010;SDS011;16851;53.564;8.112;2023-04-07T21:24:45;14.93;;;10.70;;
30010;SDS011;16851;53.564;8.112;2023-04-07T21:29:49;17.20;;;10.40;;
30010;SDS011;16851;53.564;8.112;2023-04-07T21:34:53;14.33;;;10.27;;
30010;SDS011;16851;53.564;8.112;2023-04-07T21:39:55;14.77;;;11.27;;
30010;SDS011;16851;53.564;8.112;2023-04-07T21:45:01;14.40;;;11.50;;
30010;SDS011;16851;53.564;8.112;2023-04-07T21:50:05;17.20;;;12.83;;
30010;SDS011;16851;53.564;8.112;2023-04-07T21:55:13;16.73;;;12.63;;
30010;SDS011;16851;53.564;8.112;2023-04-07T22:00:17;18.00;;;13.60;;
30010;SDS011;16851;53.564;8.112;2023-04-07T22:05:21;18.03;;;13.13;;
30010;SDS011;16851;53.564;8.112;2023-04-07T22:10:23;20.37;;;14.00;;
30010;SDS011;16851;53.564;8.112;2023-04-07T22:15:26;20.90;;;14.40;;
30010;SDS011;16851;53.564;8.112;2023-04-07T22:20:27;20.03;;;15.23;;
30010;SDS011;16851;53.564;8.112;2023-04-07T22:25:29;20.33;;;14.37;;
30010;SDS011;16851;53.564;8.112;2023-04-07T22:30:33;19.20;;;14.93;;
30010;SDS011;16851;53.564;8.112;2023-04-07T22:35:37;19.20;;;13.87;;
30010;SDS011;16851;53.564;8.112;2023-04-07T22:40:39;20.23;;;13.90;;
30010;SDS011;16851;53.564;8.112;2023-04-07T22:45:42;19.33;;;13.77;;
30010;SDS011;16851;53.564;8.112;2023-04-07T22:50:46;20.17;;;13.50;;
30010;SDS011;16851;53.564;8.112;2023-04-07T22:55:48;19.37;;;13.17;;
30010;SDS011;16851;53.564;8.112;2023-04-07T23:00:49;19.73;;;13.07;;
30010;SDS011;16851;53.564;8.112;2023-04-07T23:05:53;17.93;;;12.50;;
30010;SDS011;16851;53.564;8.112;2023-04-07T23:10:55;17.00;;;12.23;;
30010;SDS011;16851;53.564;8.112;2023-04-07T23:15:57;16.90;;;13.23;;
30010;SDS011;16851;53.564;8.112;2023-04-07T23:20:59;18.07;;;13.63;;
30010;SDS011;16851;53.564;8.112;2023-04-07T23:26:01;20.63;;;13.10;;
30010;SDS011;16851;53.564;8.112;2023-04-07T23:31:08;18.27;;;12.90;;
30010;SDS011;16851;53.564;8.112;2023-04-07T23:36:12;17.67;;;13.33;;
30010;SDS011;16851;53.564;8.112;2023-04-07T23:41:18;15.70;;;11.57;;
30010;SDS011;16851;53.564;8.112;2023-04-07T23:46:22;18.23;;;13.07;;
30010;SDS011;16851;53.564;8.112;2023-04-07T23:51:24;17.57;;;12.63;;
30010;SDS011;16851;53.564;8.112;2023-04-07T23:56:27;18.23;;;13.47;;
